메인 페이지
METAR-TAF:

METAR-TAF

공항 :

앨리스스프링스, 오스트레일리아

앨리스 스프링스 공항

위도: 23-48S, 경도: 133-53E, 고도: 545m

현재 날씨관측

예보는 30분 전, 15:30시(UTC)에 발표되었습니다.
북동2kt
온도 31°C
습도 38%
기압 1007 hPa
시정 10km 이상

METAR: YBAS 191530Z AUTO 05002KT 9999 // NCD 31/15 Q1007 RF00.0/000.0

시각: 01:30 (16:00 UTC)

예보

예보는 4 시간 27분 전, 11:33시(UTC)에 발표되었습니다.
예보 대상 시간: 19일 12시부터 20일 12시까지 (UTC)
북서5kt
시정 10km 이상
1500m 미만 상공 구름 및 적란운 없음
20일 0000시부터 (UTC)
남남서10kt
시정 10km 이상
1500m 미만 상공 구름 및 적란운 없음
확률 30% :
일시적
19일 12시부터 19일 21시까지 (UTC)
여러 방향의 바람 20kt, 순간 최대 풍속 40kt
시정: 2000m
고도 6000ft 상공 구름 보통, 적란운.
뇌우, 비

TAF: YBAS 191133Z 1912/2012 31005KT CAVOK FM200000 20010KT CAVOK PROB30 TEMPO 1912/1921 VRB20G40KT 2000 TSRA SCT060CB

4,000개 이상의 공항 관측 자료 및 예보 (METAR 및 TAF 보고).

지도상에서 검색 가능한 기상관측소가 노란 점과 빨간 점으로 표시되어 있습니다.

기상관측소 명을 보려면 표시 위로 마우스를 이동하세요.

날씨 관측과 예보를 보려면 클릭하세요.

지도 변경 : 확대하려면 엑스 표시가 있는 녹색 버튼, 축소하려면 빼기 표시가 있는 녹색 버튼, 다음 페이지의 지도를 보려면 녹색 화살표를 클릭하세요.


METAR-TAF: